Time;durP1;ratioP1;P1;durP2;ratioP2;P2;SDS_P1;SDS_P2;PMS_P1;PMS_P2;Temp;Humidity;BMP_temperature;BMP_pressure;BME280_temperature;BME280_humidity;BME280_pressure;Samples;Min_cycle;Max_cycle;Signal;HPM_P1;HPM_P2
2021/12/30 00:01:35;;;;;;;17.90;2.63;;;;;;;6.53;100.00;100714.25;5050399;28;20029;-78
2021/12/30 00:04:01;;;;;;;13.23;2.60;;;;;;;6.57;100.00;100709.56;5068978;28;20067;-78
2021/12/30 00:06:26;;;;;;;15.35;2.58;;;;;;;6.56;100.00;100708.72;5032925;28;20408;-78
2021/12/30 00:08:53;;;;;;;12.77;2.10;;;;;;;6.41;100.00;100689.03;5063270;28;20096;-78
2021/12/30 00:11:20;;;;;;;17.70;3.88;;;;;;;6.53;100.00;100714.25;5048854;28;20023;-78
2021/12/30 00:13:45;;;;;;;13.43;3.70;;;;;;;6.53;100.00;100734.34;5052598;28;20400;-78
2021/12/30 00:16:12;;;;;;;9.13;2.08;;;;;;;6.34;100.00;100698.38;5051016;28;20025;-78
2021/12/30 00:18:38;;;;;;;17.35;2.42;;;;;;;6.51;100.00;100731.88;5066901;28;20120;-78
2021/12/30 00:21:03;;;;;;;17.83;3.35;;;;;;;6.39;100.00;100725.03;5065825;28;20115;-78
2021/12/30 00:23:29;;;;;;;17.45;2.30;;;;;;;6.31;100.00;100725.63;5034358;28;20514;-78
2021/12/30 00:25:55;;;;;;;21.25;2.95;;;;;;;6.30;100.00;100728.41;5050418;28;20020;-78
2021/12/30 00:28:22;;;;;;;27.60;2.85;;;;;;;6.29;100.00;100737.19;5065912;28;20035;-78
2021/12/30 00:30:49;;;;;;;10.52;1.90;;;;;;;6.44;100.00;100762.16;5064266;28;20060;-78
2021/12/30 00:33:15;;;;;;;12.43;2.30;;;;;;;6.48;100.00;100768.00;5065293;28;20044;-78
2021/12/30 00:35:41;;;;;;;15.07;2.65;;;;;;;6.21;100.00;100734.41;5046835;28;20361;-78
2021/12/30 00:38:07;;;;;;;15.27;2.95;;;;;;;6.30;100.00;100762.47;5032609;28;20037;-78
2021/12/30 00:40:33;;;;;;;25.38;3.13;;;;;;;6.44;100.00;100788.38;5065599;28;20032;-79
2021/12/30 00:43:02;;;;;;;21.55;4.18;;;;;;;6.38;100.00;100791.53;5069823;28;20048;-78
2021/12/30 00:45:29;;;;;;;21.20;2.58;;;;;;;6.47;100.00;100809.13;5030804;28;20546;-78
2021/12/30 00:47:55;;;;;;;13.48;2.63;;;;;;;6.51;100.00;100814.94;5065688;28;20024;-78
2021/12/30 00:50:21;;;;;;;14.10;2.75;;;;;;;6.54;100.00;100815.53;5068081;28;20024;-78
2021/12/30 00:52:46;;;;;;;13.30;2.55;;;;;;;6.53;100.00;100816.50;5050035;28;20036;-78
2021/12/30 00:55:13;;;;;;;17.73;2.60;;;;;;;6.49;100.00;100801.09;5063361;28;20502;-78
2021/12/30 00:57:38;;;;;;;12.48;2.60;;;;;;;6.59;100.00;100818.59;5045925;28;20055;-78
2021/12/30 01:00:09;;;;;;;33.53;4.45;;;;;;;6.51;100.00;100792.19;5069002;28;20028;-78
2021/12/30 01:02:34;;;;;;;17.83;3.23;;;;;;;6.63;100.00;100821.00;5061651;28;20035;-78
2021/12/30 01:05:00;;;;;;;28.65;4.05;;;;;;;6.64;100.00;100823.50;5065774;28;20469;-78
2021/12/30 01:07:25;;;;;;;32.85;4.03;;;;;;;6.58;100.00;100801.22;5033643;28;20021;-78
2021/12/30 01:09:51;;;;;;;21.48;3.65;;;;;;;6.65;100.00;100801.53;5064640;28;20413;-78
2021/12/30 01:12:18;;;;;;;27.15;3.78;;;;;;;6.67;100.00;100811.91;5052144;28;20050;-78
2021/12/30 01:14:46;;;;;;;17.42;3.47;;;;;;;6.62;100.00;100807.06;5055040;28;20052;-78
2021/12/30 01:20:04;;;;;;;33.33;5.10;;;;;;;6.65;100.00;100817.28;4965780;28;20046;-78
2021/12/30 01:22:33;;;;;;;22.80;3.35;;;;;;;6.66;100.00;100818.09;4967544;28;20570;-78
2021/12/30 01:24:59;;;;;;;23.38;3.67;;;;;;;6.67;100.00;100815.38;4952211;28;20034;-78
2021/12/30 01:27:24;;;;;;;32.17;4.30;;;;;;;6.65;100.00;100811.22;4969529;28;20069;-78
2021/12/30 01:29:50;;;;;;;23.50;3.67;;;;;;;6.43;100.00;100791.97;4965087;28;20150;-78
2021/12/30 01:32:16;;;;;;;17.38;4.40;;;;;;;6.55;100.00;100804.09;4951519;28;20477;-78
2021/12/30 01:34:42;;;;;;;40.85;5.18;;;;;;;6.62;100.00;100806.19;4967358;28;20038;-78
2021/12/30 01:37:07;;;;;;;26.25;3.58;;;;;;;6.65;100.00;100812.03;4964486;28;20402;-78
2021/12/30 01:39:37;;;;;;;20.17;3.15;;;;;;;6.58;100.00;100795.97;4947991;28;20041;-79
2021/12/30 01:42:05;;;;;;;25.17;4.35;;;;;;;6.66;100.00;100811.06;4968018;28;20593;-78
2021/12/30 01:44:33;;;;;;;33.08;5.85;;;;;;;6.75;100.00;100822.59;4951137;28;20038;-78
2021/12/30 01:47:00;;;;;;;35.75;5.32;;;;;;;6.72;100.00;100822.84;4949812;28;20039;-79
2021/12/30 01:49:26;;;;;;;31.95;4.28;;;;;;;6.46;100.00;100796.94;4935841;28;20050;-79
2021/12/30 01:51:53;;;;;;;38.47;5.57;;;;;;;6.68;100.00;100831.94;4965869;28;20045;-78
2021/12/30 01:54:20;;;;;;;27.20;4.88;;;;;;;6.55;100.00;100825.06;4966010;28;20049;-78
2021/12/30 01:56:46;;;;;;;12.60;3.50;;;;;;;6.59;100.00;100844.81;4995833;28;20040;-78
2021/12/30 01:59:12;;;;;;;22.33;3.47;;;;;;;6.66;100.00;100854.81;5050341;28;20078;-78
2021/12/30 02:01:37;;;;;;;34.80;4.75;;;;;;;6.44;100.00;100808.53;5064728;28;20029;-79
2021/12/30 02:04:04;;;;;;;19.13;3.55;;;;;;;6.57;100.00;100840.66;5047910;28;20162;-78
2021/12/30 02:06:29;;;;;;;25.30;4.82;;;;;;;6.34;100.00;100805.84;5067228;28;20032;-78
2021/12/30 02:08:55;;;;;;;23.10;4.22;;;;;;;6.42;100.00;100824.38;5062548;28;20497;-78
2021/12/30 02:11:22;;;;;;;30.10;5.45;;;;;;;6.58;100.00;100855.47;5030788;28;20034;-78
2021/12/30 02:13:52;;;;;;;25.60;4.88;;;;;;;6.59;100.00;100862.34;5050592;28;20041;-78
2021/12/30 02:16:20;;;;;;;28.47;4.93;;;;;;;6.56;100.00;100852.94;5060849;28;20132;-78
2021/12/30 02:18:45;;;;;;;27.20;4.07;;;;;;;6.21;100.00;100802.53;5064270;28;20043;-78
2021/12/30 02:21:11;;;;;;;31.23;5.38;;;;;;;6.59;100.00;100881.53;5031903;28;20032;-78
2021/12/30 02:23:38;;;;;;;38.15;5.25;;;;;;;6.56;100.00;100892.28;5066284;28;20040;-78
2021/12/30 02:26:10;;;;;;;28.20;3.83;;;;;;;6.54;100.00;100896.81;5047167;28;20028;-78
2021/12/30 02:28:37;;;;;;;30.58;4.32;;;;;;;6.52;100.00;100908.38;5046496;28;20024;-78
2021/12/30 02:31:11;;;;;;;32.63;4.10;;;;;;;6.49;100.00;100896.34;5030508;28;20029;-78
2021/12/30 02:33:37;;;;;;;24.67;3.83;;;;;;;6.39;100.00;100874.44;5065655;28;20025;-78
2021/12/30 02:36:03;;;;;;;21.23;3.35;;;;;;;6.11;100.00;100833.88;5062933;28;20079;-78
2021/12/30 02:38:28;;;;;;;29.08;3.92;;;;;;;6.43;100.00;100904.69;5043193;28;20033;-78
2021/12/30 02:40:56;;;;;;;16.58;2.95;;;;;;;6.25;100.00;100883.41;5062909;28;20040;-78
2021/12/30 02:43:25;;;;;;;22.85;4.43;;;;;;;6.33;100.00;100895.88;5067961;28;20029;-78
2021/12/30 02:45:51;;;;;;;16.10;3.25;;;;;;;6.29;100.00;100894.47;5065881;28;20035;-78
2021/12/30 02:48:19;;;;;;;32.40;4.93;;;;;;;6.21;100.00;100870.66;5031564;28;20053;-78
2021/12/30 02:50:47;;;;;;;30.13;3.60;;;;;;;6.32;100.00;100900.31;5044554;28;20118;-78
2021/12/30 02:53:13;;;;;;;24.17;5.18;;;;;;;6.31;100.00;100892.56;5044845;28;20032;-78
2021/12/30 02:55:40;;;;;;;19.40;2.92;;;;;;;6.23;100.00;100868.72;5066288;28;20040;-78
2021/12/30 02:58:06;;;;;;;19.83;3.80;;;;;;;6.33;100.00;100888.03;5048633;28;20389;-78
2021/12/30 03:00:32;;;;;;;22.05;4.15;;;;;;;6.18;100.00;100866.47;5045039;28;20043;-78
2021/12/30 03:02:57;;;;;;;25.05;4.45;;;;;;;6.04;100.00;100859.72;5046228;28;20044;-78
2021/12/30 03:05:25;;;;;;;18.80;3.45;;;;;;;6.33;100.00;100906.38;5035467;28;20028;-78
2021/12/30 03:07:54;;;;;;;32.42;4.75;;;;;;;6.25;100.00;100879.94;5050951;28;20443;-78
2021/12/30 03:10:22;;;;;;;25.83;4.75;;;;;;;6.22;100.00;100873.16;5070767;28;20025;-78
2021/12/30 03:12:55;;;;;;;29.33;4.07;;;;;;;6.27;100.00;100891.13;5068776;28;20028;-78
2021/12/30 03:15:22;;;;;;;23.67;4.50;;;;;;;6.18;100.00;100872.56;5035224;28;20038;-78
2021/12/30 03:17:47;;;;;;;28.48;4.13;;;;;;;6.26;100.00;100876.38;5049138;28;20032;-78
2021/12/30 03:20:13;;;;;;;20.77;4.20;;;;;;;6.43;100.00;100901.25;5052770;28;20030;-78
2021/12/30 03:22:40;;;;;;;28.10;4.25;;;;;;;6.46;100.00;100888.72;5046890;28;20031;-78
2021/12/30 03:25:08;;;;;;;20.48;3.83;;;;;;;6.44;100.00;100880.13;5068799;28;20017;-78
2021/12/30 03:27:34;;;;;;;31.40;4.93;;;;;;;6.49;100.00;100885.00;5070513;28;20068;-78
2021/12/30 03:30:00;;;;;;;23.02;3.45;;;;;;;6.42;100.00;100868.94;5052590;28;20029;-78
2021/12/30 03:32:25;;;;;;;21.85;4.65;;;;;;;6.59;100.00;100899.06;5071122;28;20059;-78
2021/12/30 03:34:50;;;;;;;29.30;4.43;;;;;;;6.62;100.00;100895.34;5048091;28;20131;-78
2021/12/30 03:37:16;;;;;;;22.55;4.88;;;;;;;6.56;100.00;100887.03;5050955;28;20037;-78
2021/12/30 03:39:42;;;;;;;25.80;4.50;;;;;;;6.56;100.00;100876.53;5070870;28;20103;-78
2021/12/30 03:42:08;;;;;;;23.52;4.00;;;;;;;6.49;100.00;100857.03;5032408;28;20064;-78
2021/12/30 03:44:33;;;;;;;32.05;4.45;;;;;;;6.60;100.00;100877.16;5070994;28;20075;-78
2021/12/30 03:46:59;;;;;;;42.63;5.80;;;;;;;6.71;100.00;100903.34;5068306;28;20115;-78
2021/12/30 03:49:24;;;;;;;32.03;5.47;;;;;;;6.72;100.00;100904.16;5050299;28;20053;-78
2021/12/30 03:51:52;;;;;;;28.45;3.92;;;;;;;6.72;100.00;100889.25;5056648;28;20054;-78
2021/12/30 03:54:18;;;;;;;39.70;5.13;;;;;;;6.72;100.00;100870.06;5065010;28;20028;-78
2021/12/30 03:56:44;;;;;;;29.55;6.03;;;;;;;6.64;100.00;100864.59;5066025;28;20033;-78
2021/12/30 03:59:09;;;;;;;16.15;4.00;;;;;;;6.49;100.00;100833.44;5070154;28;20113;-78
2021/12/30 04:01:35;;;;;;;34.60;5.22;;;;;;;6.73;100.00;100877.81;5034041;28;20168;-78
2021/12/30 04:04:01;;;;;;;35.90;5.22;;;;;;;6.79;100.00;100886.97;5066903;28;20029;-78
2021/12/30 04:06:27;;;;;;;17.15;5.18;;;;;;;6.84;100.00;100879.56;5068608;28;20366;-79
2021/12/30 04:08:54;;;;;;;36.30;7.47;;;;;;;6.89;100.00;100887.88;5063721;28;20029;-78
2021/12/30 04:11:25;;;;;;;31.27;4.85;;;;;;;6.90;100.00;100886.94;5068658;28;20100;-78
2021/12/30 04:13:51;;;;;;;33.88;7.20;;;;;;;6.87;100.00;100871.44;5069407;28;20107;-78
2021/12/30 04:16:18;;;;;;;36.63;7.85;;;;;;;6.97;100.00;100853.16;5019593;28;20120;-78
2021/12/30 04:18:45;;;;;;;39.65;7.22;;;;;;;6.97;100.00;100863.66;5047699;28;20029;-78
2021/12/30 04:21:11;;;;;;;31.23;7.28;;;;;;;6.85;100.00;100844.50;5068218;28;20399;-78
2021/12/30 04:23:36;;;;;;;28.05;6.72;;;;;;;6.90;100.00;100844.97;5043135;28;20188;-78
2021/12/30 04:26:02;;;;;;;34.95;8.85;;;;;;;6.99;100.00;100867.81;5033660;28;20551;-78
2021/12/30 04:28:27;;;;;;;33.63;6.85;;;;;;;6.97;100.00;100885.47;5065243;28;20062;-79
2021/12/30 04:30:53;;;;;;;43.58;9.45;;;;;;;6.91;100.00;100879.91;5030833;28;20488;-79
2021/12/30 04:33:19;;;;;;;29.60;6.10;;;;;;;7.07;100.00;100900.47;5049838;28;20029;-79
2021/12/30 04:35:45;;;;;;;35.10;7.10;;;;;;;6.93;100.00;100886.69;5050160;28;20029;-78
2021/12/30 04:38:10;;;;;;;35.88;6.85;;;;;;;7.03;100.00;100896.41;5066482;28;20035;-78
2021/12/30 04:40:36;;;;;;;39.28;8.10;;;;;;;7.12;100.00;100914.03;5066607;28;20570;-79
2021/12/30 04:43:02;;;;;;;30.83;7.18;;;;;;;6.94;100.00;100864.72;5051211;28;20036;-78
2021/12/30 04:45:29;;;;;;;40.72;8.10;;;;;;;7.17;100.00;100888.25;5064996;28;20025;-78
2021/12/30 04:47:54;;;;;;;29.27;7.05;;;;;;;7.07;100.00;100853.22;5031768;28;20067;-78
2021/12/30 04:50:20;;;;;;;38.90;8.52;;;;;;;7.33;100.00;100900.94;5049634;28;20492;-78
2021/12/30 04:52:45;;;;;;;29.00;6.80;;;;;;;7.25;100.00;100877.09;5066246;28;20058;-78
2021/12/30 04:55:11;;;;;;;23.17;6.65;;;;;;;7.26;100.00;100876.97;5063774;28;20445;-78
2021/12/30 04:57:37;;;;;;;44.40;8.50;;;;;;;7.28;100.00;100880.31;5031794;28;20043;-78
2021/12/30 05:00:08;;;;;;;32.28;7.10;;;;;;;7.30;100.00;100886.28;5049330;28;20033;-78
2021/12/30 05:02:51;;;;;;;34.90;8.65;;;;;;;7.46;100.00;100901.56;5065306;28;20024;-78
2021/12/30 05:05:16;;;;;;;33.95;6.60;;;;;;;7.48;100.00;100889.16;5047323;28;20258;-78
2021/12/30 05:07:42;;;;;;;31.95;7.32;;;;;;;7.40;100.00;100867.94;5066923;28;20024;-78
2021/12/30 05:10:08;;;;;;;42.30;7.75;;;;;;;7.36;100.00;100875.25;5066259;28;20028;-78
2021/12/30 05:12:33;;;;;;;29.42;6.10;;;;;;;7.43;100.00;100874.75;5034161;28;20021;-78
2021/12/30 05:14:59;;;;;;;30.02;6.30;;;;;;;7.54;100.00;100898.31;5045557;28;20520;-78
2021/12/30 05:17:28;;;;;;;39.63;8.32;;;;;;;7.51;100.00;100882.81;5027914;28;20085;-78
2021/12/30 05:19:54;;;;;;;34.35;9.02;;;;;;;7.60;100.00;100874.16;5060580;28;20024;-78
2021/12/30 05:22:19;;;;;;;48.47;8.68;;;;;;;7.74;100.00;100886.94;5042305;28;20515;-78
2021/12/30 05:24:45;;;;;;;28.35;6.03;;;;;;;7.83;100.00;100891.41;5046121;28;20067;-79
2021/12/30 05:27:10;;;;;;;45.20;9.60;;;;;;;7.89;100.00;100897.13;5062969;28;20371;-79
2021/12/30 05:29:35;;;;;;;52.65;10.77;;;;;;;7.95;100.00;100900.06;5049419;28;20028;-78
2021/12/30 05:32:01;;;;;;;32.85;10.38;;;;;;;8.02;100.00;100889.84;5030794;28;20033;-78
2021/12/30 05:34:26;;;;;;;41.30;9.77;;;;;;;8.04;100.00;100869.53;5045183;28;20476;-79
2021/12/30 05:36:52;;;;;;;43.63;9.60;;;;;;;8.17;100.00;100891.16;5049542;28;20484;-78
2021/12/30 05:39:17;;;;;;;44.92;12.70;;;;;;;8.24;100.00;100880.94;5049172;28;20033;-79
2021/12/30 05:41:43;;;;;;;47.35;10.85;;;;;;;8.32;100.00;100883.72;5050128;28;20086;-78
2021/12/30 05:44:08;;;;;;;53.22;10.02;;;;;;;8.26;100.00;100868.47;5047099;28;20039;-78
2021/12/30 05:46:34;;;;;;;60.03;12.77;;;;;;;8.47;100.00;100883.34;5045774;28;20051;-78
2021/12/30 05:49:00;;;;;;;47.50;9.85;;;;;;;8.52;100.00;100873.28;5028581;28;20496;-78
2021/12/30 05:51:25;;;;;;;52.95;13.75;;;;;;;8.38;100.00;100835.00;5047309;28;20036;-78
2021/12/30 05:53:51;;;;;;;63.85;13.82;;;;;;;8.49;100.00;100847.22;5044020;28;20127;-78
2021/12/30 05:56:17;;;;;;;52.60;15.55;;;;;;;8.61;100.00;100861.94;5029622;28;20044;-78
2021/12/30 05:58:42;;;;;;;63.92;14.55;;;;;;;8.55;100.00;100858.03;5044987;28;20029;-78
2021/12/30 06:01:08;;;;;;;69.97;14.85;;;;;;;8.75;100.00;100881.75;5065140;28;20480;-78
2021/12/30 06:03:33;;;;;;;48.47;12.80;;;;;;;8.80;100.00;100882.19;5061365;28;20029;-78
2021/12/30 06:05:58;;;;;;;54.78;13.82;;;;;;;8.84;100.00;100886.16;5046328;28;20230;-78
2021/12/30 06:08:24;;;;;;;44.63;13.18;;;;;;;8.76;100.00;100863.19;5047898;28;20060;-78
2021/12/30 06:10:49;;;;;;;44.47;14.02;;;;;;;8.97;100.00;100886.75;5046138;28;20376;-78
2021/12/30 06:13:16;;;;;;;47.15;13.02;;;;;;;8.99;100.00;100889.22;5047699;28;20032;-78
2021/12/30 06:15:41;;;;;;;34.38;11.30;;;;;;;8.97;100.00;100888.53;5045879;28;20186;-78
2021/12/30 06:18:07;;;;;;;38.58;13.32;;;;;;;9.07;100.00;100897.28;5034427;28;20615;-78
2021/12/30 06:20:33;;;;;;;39.15;12.23;;;;;;;9.11;100.00;100892.56;5043516;28;20040;-78
2021/12/30 06:22:58;;;;;;;41.55;11.98;;;;;;;9.15;100.00;100878.97;5063999;28;20089;-78
2021/12/30 06:25:25;;;;;;;40.00;12.23;;;;;;;9.20;100.00;100892.56;5049201;28;20046;-78
2021/12/30 06:27:51;;;;;;;33.13;10.90;;;;;;;9.06;100.00;100866.66;5066280;28;20033;-78
2021/12/30 06:30:16;;;;;;;31.40;11.50;;;;;;;9.05;100.00;100868.44;5031631;28;20024;-78
2021/12/30 06:32:42;;;;;;;24.55;9.70;;;;;;;9.13;100.00;100866.94;5068604;28;20025;-78
2021/12/30 06:35:08;;;;;;;23.40;10.52;;;;;;;9.11;100.00;100864.44;5066608;28;20422;-78
2021/12/30 06:37:39;;;;;;;26.08;9.23;;;;;;;9.28;100.00;100886.59;5030978;28;20040;-78
2021/12/30 06:40:07;;;;;;;25.73;8.60;;;;;;;9.21;100.00;100874.94;5069441;28;20028;-79
2021/12/30 06:42:33;;;;;;;18.27;7.22;;;;;;;9.30;100.00;100887.28;5071530;28;20107;-79
2021/12/30 06:44:58;;;;;;;16.67;7.10;;;;;;;9.32;100.00;100885.34;5054123;28;20077;-78
2021/12/30 06:47:24;;;;;;;27.38;9.02;;;;;;;9.35;100.00;100887.69;5036567;28;20032;-78
2021/12/30 06:49:50;;;;;;;21.95;7.95;;;;;;;9.35;100.00;100882.41;5049271;28;20467;-78
2021/12/30 06:52:16;;;;;;;23.30;9.00;;;;;;;9.26;100.00;100873.56;5070446;28;20119;-78
2021/12/30 06:54:42;;;;;;;22.10;8.98;;;;;;;9.30;100.00;100875.91;5035073;28;20127;-78
2021/12/30 06:57:11;;;;;;;19.63;8.75;;;;;;;9.23;100.00;100873.84;5054522;28;20033;-78
2021/12/30 06:59:37;;;;;;;24.05;8.73;;;;;;;9.42;100.00;100888.78;5069829;28;20085;-78
2021/12/30 07:02:05;;;;;;;21.45;8.20;;;;;;;9.43;100.00;100885.19;5050979;28;20543;-78
2021/12/30 07:04:31;;;;;;;22.42;8.93;;;;;;;9.45;100.00;100877.97;5053660;28;20107;-78
2021/12/30 07:06:56;;;;;;;18.80;8.18;;;;;;;9.43;100.00;100864.13;5049754;28;20658;-78
2021/12/30 07:09:22;;;;;;;31.63;11.07;;;;;;;9.36;100.00;100857.72;5070177;28;20055;-78
2021/12/30 07:11:51;;;;;;;23.23;10.10;;;;;;;9.50;100.00;100879.34;5033661;28;20155;-78
2021/12/30 07:14:18;;;;;;;28.25;9.07;;;;;;;9.45;100.00;100880.59;5070134;28;20047;-78
2021/12/30 07:16:44;;;;;;;30.15;8.63;;;;;;;9.38;100.00;100866.31;5069750;28;20396;-78
2021/12/30 07:19:10;;;;;;;30.13;9.57;;;;;;;9.33;100.00;100857.19;5048913;28;20097;-78
2021/12/30 07:21:35;;;;;;;30.45;8.10;;;;;;;9.52;100.00;100877.41;5069628;28;20032;-78
2021/12/30 07:24:00;;;;;;;24.08;9.45;;;;;;;9.53;100.00;100892.22;5036597;28;20061;-78
2021/12/30 07:26:26;;;;;;;31.95;8.55;;;;;;;9.54;100.00;100896.50;5051580;28;20086;-78
2021/12/30 07:28:51;;;;;;;25.42;7.75;;;;;;;9.54;100.00;100902.63;5071840;28;20039;-78
2021/12/30 07:31:17;;;;;;;28.17;9.15;;;;;;;9.56;100.00;100905.97;5070195;28;20136;-78
2021/12/30 07:33:42;;;;;;;24.35;7.40;;;;;;;9.58;100.00;100897.88;5051829;28;20035;-78
2021/12/30 07:36:07;;;;;;;22.60;7.75;;;;;;;9.51;100.00;100889.72;5053044;28;20028;-78
2021/12/30 07:38:33;;;;;;;25.17;7.35;;;;;;;9.60;100.00;100885.41;5052947;28;20077;-78
2021/12/30 07:40:58;;;;;;;27.95;8.88;;;;;;;9.53;100.00;100863.25;5019809;28;20021;-79
2021/12/30 07:43:24;;;;;;;21.13;7.05;;;;;;;9.52;100.00;100861.59;5069407;28;20058;-79
2021/12/30 07:45:49;;;;;;;25.17;7.68;;;;;;;9.71;100.00;100903.69;5052156;28;20408;-79
2021/12/30 07:48:14;;;;;;;22.10;7.38;;;;;;;9.55;100.00;100875.31;5050426;28;20426;-79
2021/12/30 07:50:40;;;;;;;21.10;6.80;;;;;;;9.73;100.00;100906.19;5050284;28;20051;-79
2021/12/30 07:53:05;;;;;;;18.58;7.22;;;;;;;9.58;100.00;100887.34;5016972;28;20098;-79
2021/12/30 07:55:31;;;;;;;17.83;5.40;;;;;;;9.74;100.00;100913.13;5047803;28;20028;-79
2021/12/30 07:57:58;;;;;;;12.80;5.18;;;;;;;9.78;100.00;100917.97;5033917;28;20037;-79
2021/12/30 08:00:23;;;;;;;21.67;6.32;;;;;;;9.64;100.00;100892.88;5069659;28;20035;-79
2021/12/30 08:02:49;;;;;;;13.90;5.10;;;;;;;9.79;100.00;100916.16;5049949;28;20029;-79
2021/12/30 08:05:17;;;;;;;17.23;5.60;;;;;;;9.78;100.00;100920.59;5019942;28;20024;-79
2021/12/30 08:07:46;;;;;;;14.23;5.97;;;;;;;9.64;100.00;100894.69;5047866;28;20108;-79
2021/12/30 08:10:14;;;;;;;16.63;5.28;;;;;;;9.64;100.00;100892.06;5032010;28;20032;-79
2021/12/30 08:12:42;;;;;;;14.13;5.10;;;;;;;9.76;100.00;100906.75;5067338;28;20028;-79
2021/12/30 08:15:09;;;;;;;13.68;5.55;;;;;;;9.70;100.00;100894.13;5066331;28;20036;-79
2021/12/30 08:17:36;;;;;;;13.18;4.43;;;;;;;9.84;100.00;100911.28;5051514;28;20032;-79
2021/12/30 08:20:03;;;;;;;12.65;4.18;;;;;;;9.55;100.00;100856.03;5066332;28;20394;-79
2021/12/30 08:22:28;;;;;;;10.90;4.53;;;;;;;9.68;100.00;100877.63;5064202;28;20476;-79
2021/12/30 08:24:53;;;;;;;12.23;4.50;;;;;;;9.75;100.00;100875.25;5032156;28;20112;-79
2021/12/30 08:27:19;;;;;;;10.80;4.90;;;;;;;9.89;100.00;100898.50;5016726;28;20028;-79
2021/12/30 08:29:44;;;;;;;11.23;5.35;;;;;;;9.76;100.00;100875.13;5049770;28;20028;-79
2021/12/30 08:32:11;;;;;;;7.90;3.63;;;;;;;9.83;100.00;100880.63;5047971;28;20040;-79
2021/12/30 08:34:38;;;;;;;8.45;4.22;;;;;;;9.80;100.00;100876.50;5053064;28;20059;-81
2021/12/30 08:37:04;;;;;;;12.73;4.47;;;;;;;9.91;100.00;100904.47;5053771;28;20028;-81
2021/12/30 08:39:29;;;;;;;9.45;4.05;;;;;;;9.77;100.00;100881.22;5054037;28;20035;-82
2021/12/30 08:41:57;;;;;;;8.82;4.07;;;;;;;9.93;100.00;100902.53;5069253;28;20528;-79
2021/12/30 08:44:23;;;;;;;5.80;4.18;;;;;;;9.99;100.00;100901.09;5063273;28;20035;-81
2021/12/30 08:46:49;;;;;;;8.27;4.53;;;;;;;9.93;100.00;100896.41;5051208;28;20354;-81
2021/12/30 08:49:14;;;;;;;7.32;4.00;;;;;;;10.01;100.00;100910.53;5029720;28;20066;-85
2021/12/30 08:51:40;;;;;;;7.57;3.83;;;;;;;9.88;100.00;100886.28;5041463;28;20028;-84
2021/12/30 08:54:05;;;;;;;6.10;3.30;;;;;;;9.94;100.00;100895.44;5027503;28;20079;-84
2021/12/30 08:56:31;;;;;;;5.82;3.60;;;;;;;10.01;100.00;100907.88;5028866;28;20037;-84
2021/12/30 08:58:57;;;;;;;7.25;3.33;;;;;;;9.83;100.00;100881.47;5029105;28;20509;-83
2021/12/30 09:01:23;;;;;;;5.30;2.50;;;;;;;10.16;100.00;100931.97;5028716;28;20056;-81
2021/12/30 09:03:50;;;;;;;4.78;2.65;;;;;;;10.13;100.00;100921.75;5019215;28;20029;-85
2021/12/30 09:06:15;;;;;;;4.38;2.95;;;;;;;10.11;100.00;100925.50;5019046;28;20496;-84
2021/12/30 09:08:40;;;;;;;7.22;3.15;;;;;;;10.17;100.00;100919.63;5009676;28;20056;-82
2021/12/30 09:11:06;;;;;;;4.80;3.47;;;;;;;10.07;100.00;100903.84;5005197;28;20052;-83
2021/12/30 09:13:32;;;;;;;6.53;4.05;;;;;;;10.24;100.00;100920.72;5048109;28;20028;-85
2021/12/30 09:15:57;;;;;;;7.18;3.95;;;;;;;10.15;100.00;100916.28;5018517;28;20033;-85
2021/12/30 09:18:24;;;;;;;12.98;4.45;;;;;;;10.23;100.00;100927.78;5043527;28;20031;-84
2021/12/30 09:20:50;;;;;;;11.77;4.93;;;;;;;10.30;100.00;100928.09;5046868;28;20125;-81
2021/12/30 09:23:15;;;;;;;8.30;4.35;;;;;;;10.31;100.00;100931.56;5049767;28;20021;-80
2021/12/30 09:25:41;;;;;;;7.80;4.50;;;;;;;10.22;100.00;100934.03;5051842;28;20025;-80
2021/12/30 09:28:12;;;;;;;8.50;4.15;;;;;;;10.28;100.00;100930.84;5049744;28;20057;-80
2021/12/30 09:30:39;;;;;;;10.05;4.00;;;;;;;10.31;100.00;100939.47;5050139;28;20028;-80
2021/12/30 09:33:05;;;;;;;9.98;3.58;;;;;;;10.34;100.00;100932.06;5052399;28;20056;-81
2021/12/30 09:35:31;;;;;;;10.63;4.07;;;;;;;10.23;100.00;100919.03;5048998;28;20071;-80
2021/12/30 09:37:57;;;;;;;6.88;3.17;;;;;;;10.33;100.00;100932.22;5030129;28;20056;-80
2021/12/30 09:40:23;;;;;;;11.40;3.40;;;;;;;10.35;100.00;100944.28;5027394;28;20035;-80
2021/12/30 09:42:53;;;;;;;5.63;3.00;;;;;;;10.34;100.00;100945.25;5044841;28;20344;-80
2021/12/30 09:45:19;;;;;;;8.70;3.50;;;;;;;10.32;100.00;100941.94;5047748;28;20049;-80
2021/12/30 09:47:49;;;;;;;9.30;3.47;;;;;;;10.13;100.00;100913.81;5027569;28;20120;-80
2021/12/30 09:50:17;;;;;;;7.33;3.87;;;;;;;10.33;100.00;100940.97;5045532;28;20526;-80
2021/12/30 09:52:42;;;;;;;9.23;4.20;;;;;;;10.37;100.00;100950.25;5040193;28;20041;-80
2021/12/30 09:55:08;;;;;;;10.00;4.20;;;;;;;10.17;100.00;100925.75;5053260;28;20029;-80
2021/12/30 09:57:34;;;;;;;13.52;3.45;;;;;;;10.42;100.00;100958.56;5047287;28;20025;-80
2021/12/30 10:00:01;;;;;;;15.05;4.60;;;;;;;10.28;100.00;100948.47;5048679;28;20037;-80
2021/12/30 10:02:26;;;;;;;11.88;3.35;;;;;;;10.43;100.00;100954.09;5013935;28;20076;-80
2021/12/30 10:05:23;;;;;;;16.27;3.58;;;;;;;10.42;100.00;100973.56;5047285;28;20037;-80
2021/12/30 10:08:07;;;;;;;10.48;3.13;;;;;;;10.43;100.00;100969.94;4963366;28;21152;-81
2021/12/30 10:10:34;;;;;;;13.88;2.53;;;;;;;10.34;100.00;100947.91;4968281;28;20035;-81
2021/12/30 10:13:30;;;;;;;12.27;3.33;;;;;;;10.47;100.00;100977.44;4965198;28;20749;-81
2021/12/30 10:15:58;;;;;;;14.98;5.45;;;;;;;10.51;100.00;100975.31;4972724;28;20027;-80
2021/12/30 10:18:42;;;;;;;11.50;5.80;;;;;;;10.34;100.00;100950.53;4969023;28;20050;-80
2021/12/30 10:21:21;;;;;;;20.40;6.18;;;;;;;10.55;100.00;100975.88;4968504;28;20042;-80
2021/12/30 10:23:52;;;;;;;21.92;6.88;;;;;;;10.55;100.00;100966.13;4966756;28;20047;-80
2021/12/30 10:26:18;;;;;;;14.30;5.95;;;;;;;10.46;100.00;100952.00;4968365;28;20031;-80
2021/12/30 10:28:47;;;;;;;10.52;4.97;;;;;;;10.58;100.00;100962.38;4951535;28;20117;-80
2021/12/30 10:31:13;;;;;;;9.80;4.88;;;;;;;10.63;100.00;100974.16;4969370;28;20043;-80
2021/12/30 10:33:52;;;;;;;12.90;3.50;;;;;;;10.51;100.00;100948.94;4970288;28;20112;-80
2021/12/30 10:36:30;;;;;;;18.35;6.05;;;;;;;10.60;100.00;100969.16;4968142;28;20066;-81
2021/12/30 10:39:34;;;;;;;12.90;4.75;;;;;;;10.67;100.00;100974.72;4967318;28;20154;-81
2021/12/30 10:42:10;;;;;;;11.35;4.88;;;;;;;10.69;100.00;100968.28;4969290;28;20031;-80
2021/12/30 10:44:57;;;;;;;20.33;6.38;;;;;;;10.75;100.00;100963.38;5017344;28;20048;-80
2021/12/30 10:47:28;;;;;;;22.85;9.27;;;;;;;10.69;100.00;100960.38;5048580;28;20199;-80
2021/12/30 10:50:10;;;;;;;14.98;9.23;;;;;;;10.75;100.00;100971.31;5050731;28;21890;-80
2021/12/30 10:52:54;;;;;;;35.83;14.65;;;;;;;10.65;100.00;100952.91;5043656;28;20028;-80
2021/12/30 10:55:21;;;;;;;17.23;3.90;;;;;;;10.69;100.00;100970.94;5051193;28;20055;-80
2021/12/30 10:57:46;;;;;;;11.63;3.20;;;;;;;10.73;100.00;100981.19;5038750;28;20028;-80
2021/12/30 11:00:33;;;;;;;10.32;2.85;;;;;;;10.73;100.00;100984.66;5037824;28;20086;-80
2021/12/30 11:03:27;;;;;;;7.90;2.70;;;;;;;10.66;100.00;100967.75;5062793;28;20025;-80
2021/12/30 11:06:13;;;;;;;10.82;2.00;;;;;;;10.74;100.00;100975.78;5030341;28;20036;-81
2021/12/30 11:08:38;;;;;;;13.45;2.38;;;;;;;10.70;100.00;100984.97;5050198;28;20021;-80
2021/12/30 11:11:26;;;;;;;10.32;2.60;;;;;;;10.74;100.00;100991.59;5047797;28;20033;-80
2021/12/30 11:14:13;;;;;;;12.43;2.65;;;;;;;10.74;100.00;100994.25;5050861;28;20042;-80
2021/12/30 11:16:52;;;;;;;11.48;2.58;;;;;;;10.75;100.00;100987.97;5048265;28;20025;-80
2021/12/30 11:19:18;;;;;;;19.27;3.00;;;;;;;10.75;100.00;100997.72;5050503;28;20174;-80
2021/12/30 11:21:44;;;;;;;13.00;2.45;;;;;;;10.68;100.00;100987.72;5049414;28;20177;-80